Time;durP1;ratioP1;P1;durP2;ratioP2;P2;SDS_P1;SDS_P2;PMS_P1;PMS_P2;Temp;Humidity;BMP_temperature;BMP_pressure;BME280_temperature;BME280_humidity;BME280_pressure;Samples;Min_cycle;Max_cycle;Signal;HPM_P1;HPM_P2
2022/01/17 00:00:52;;;;;;;11.38;8.93;;;4.50;99.90;;;;;;5030148;28;20149;-72
2022/01/17 00:03:18;;;;;;;9.82;8.55;;;4.40;99.90;;;;;;5015115;28;20049;-72
2022/01/17 00:05:44;;;;;;;8.98;7.47;;;4.30;99.90;;;;;;5014848;28;20064;-72
2022/01/17 00:08:09;;;;;;;10.93;8.32;;;4.20;99.90;;;;;;5014835;28;20034;-74
2022/01/17 00:10:35;;;;;;;10.00;7.95;;;4.20;99.90;;;;;;5014566;28;20053;-74
2022/01/17 00:13:00;;;;;;;9.65;8.00;;;4.20;99.90;;;;;;5014462;28;20026;-73
2022/01/17 00:15:41;;;;;;;8.20;6.95;;;4.30;99.90;;;;;;5014849;28;20026;-72
2022/01/17 00:20:38;;;;;;;8.68;6.15;;;4.20;99.90;;;;;;5014231;28;20041;-73
2022/01/17 00:23:04;;;;;;;7.72;6.18;;;4.30;99.90;;;;;;5014809;28;20034;-73
2022/01/17 00:25:29;;;;;;;8.00;6.63;;;4.30;99.90;;;;;;5014297;28;20501;-74
2022/01/17 00:27:55;;;;;;;7.72;6.63;;;4.30;99.90;;;;;;5014477;28;20087;-72
2022/01/17 00:30:21;;;;;;;6.65;5.70;;;4.20;99.90;;;;;;5014169;28;20108;-73
2022/01/17 00:32:46;;;;;;;7.68;6.30;;;4.30;99.90;;;;;;5014245;28;20022;-73
2022/01/17 00:35:12;;;;;;;9.15;7.32;;;4.30;99.90;;;;;;5014111;28;20068;-73
2022/01/17 00:37:38;;;;;;;8.13;7.15;;;4.20;99.90;;;;;;5014005;28;20030;-73
2022/01/17 00:40:05;;;;;;;8.68;6.35;;;4.20;99.90;;;;;;5016099;28;20104;-73
2022/01/17 00:42:31;;;;;;;8.77;7.35;;;4.20;99.90;;;;;;5015568;28;20316;-73
2022/01/17 00:44:56;;;;;;;7.97;7.00;;;4.50;99.90;;;;;;5015315;28;20104;-73
2022/01/17 00:47:22;;;;;;;9.65;7.53;;;4.50;99.90;;;;;;5016425;28;20034;-71
2022/01/17 00:49:48;;;;;;;8.82;6.90;;;4.40;99.90;;;;;;5020783;28;20079;-74
2022/01/17 00:52:13;;;;;;;8.68;7.78;;;4.30;99.90;;;;;;5035422;28;20052;-73
2022/01/17 00:54:39;;;;;;;11.10;8.90;;;4.40;99.90;;;;;;5029815;28;20026;-74
2022/01/17 00:57:04;;;;;;;11.48;9.75;;;4.30;99.90;;;;;;5029664;28;20379;-73
2022/01/17 00:59:30;;;;;;;11.32;9.68;;;4.00;99.90;;;;;;5017388;28;20040;-73
2022/01/17 01:01:56;;;;;;;11.43;9.02;;;4.00;99.90;;;;;;5013755;28;20064;-73
2022/01/17 01:04:22;;;;;;;11.43;9.82;;;3.90;99.90;;;;;;5013791;28;20122;-72
2022/01/17 01:06:48;;;;;;;10.98;9.63;;;3.90;99.90;;;;;;5028656;28;20112;-73
2022/01/17 01:09:14;;;;;;;11.88;9.68;;;3.80;99.90;;;;;;5013000;28;20106;-72
2022/01/17 01:11:39;;;;;;;11.25;9.52;;;3.80;99.90;;;;;;5013755;28;20022;-73
2022/01/17 01:14:05;;;;;;;14.15;11.23;;;3.80;99.90;;;;;;5015100;28;20033;-73
2022/01/17 01:16:34;;;;;;;12.63;10.63;;;3.80;99.90;;;;;;5013949;28;20034;-72
2022/01/17 01:29:55;;;;;;;22.23;15.52;;;3.60;99.90;;;;;;5014464;28;20037;-73
2022/01/17 01:32:24;;;;;;;19.70;13.98;;;3.60;99.90;;;;;;5013591;28;20485;-73
2022/01/17 01:34:53;;;;;;;22.27;15.32;;;3.60;99.90;;;;;;5012634;28;20033;-73
2022/01/17 01:37:19;;;;;;;18.45;14.25;;;3.70;99.90;;;;;;5019199;28;20497;-73
2022/01/17 01:39:46;;;;;;;16.92;13.27;;;3.60;99.90;;;;;;5015757;28;20026;-73
2022/01/17 01:42:15;;;;;;;17.88;14.57;;;3.60;99.90;;;;;;5022052;28;20030;-73
2022/01/17 01:44:41;;;;;;;17.17;12.57;;;3.70;99.90;;;;;;5019566;28;20409;-73
2022/01/17 01:47:07;;;;;;;22.75;14.77;;;3.60;99.90;;;;;;5013973;28;20022;-73
2022/01/17 01:49:33;;;;;;;21.55;14.80;;;3.60;99.90;;;;;;5013689;28;20436;-72
2022/01/17 01:51:58;;;;;;;16.80;12.95;;;3.60;99.90;;;;;;5013530;28;20038;-72
2022/01/17 01:54:24;;;;;;;17.17;13.35;;;3.60;99.90;;;;;;5013982;28;20057;-73
2022/01/17 01:56:50;;;;;;;19.65;14.15;;;3.70;99.90;;;;;;5012707;28;20089;-73
2022/01/17 01:59:21;;;;;;;14.13;11.63;;;3.70;99.90;;;;;;5013308;28;20049;-73
2022/01/17 02:01:51;;;;;;;15.05;12.43;;;3.70;99.90;;;;;;5013566;28;20040;-73
2022/01/17 02:04:16;;;;;;;14.32;11.32;;;3.70;99.90;;;;;;5014856;28;20101;-74
2022/01/17 02:06:42;;;;;;;15.52;12.43;;;3.70;99.90;;;;;;5017298;28;20524;-74
2022/01/17 02:09:08;;;;;;;16.48;12.88;;;3.70;99.90;;;;;;5020029;28;20512;-73
2022/01/17 02:11:35;;;;;;;14.35;12.10;;;3.70;99.90;;;;;;5031366;28;20026;-74
2022/01/17 02:14:01;;;;;;;16.63;12.73;;;3.80;99.90;;;;;;5031877;28;20101;-73
2022/01/17 02:16:27;;;;;;;15.32;12.00;;;3.80;99.90;;;;;;5035955;28;20026;-72
2022/01/17 02:18:53;;;;;;;12.55;11.23;;;3.80;99.90;;;;;;5031419;28;20397;-73
2022/01/17 02:21:31;;;;;;;15.77;11.60;;;3.80;99.90;;;;;;5027056;28;20026;-75
2022/01/17 02:23:58;;;;;;;17.95;11.70;;;3.80;99.90;;;;;;5024126;28;20030;-73
2022/01/17 02:26:23;;;;;;;15.55;12.70;;;3.80;99.90;;;;;;5030055;28;20010;-72
2022/01/17 02:28:52;;;;;;;14.55;11.75;;;3.80;99.90;;;;;;5033395;28;20088;-73
2022/01/17 02:31:20;;;;;;;15.23;11.30;;;3.80;99.90;;;;;;5033433;28;20022;-74
2022/01/17 02:33:46;;;;;;;14.65;11.07;;;3.80;99.90;;;;;;5033822;28;20022;-74
2022/01/17 02:36:12;;;;;;;12.60;10.75;;;3.90;99.90;;;;;;5030907;28;20022;-74
2022/01/17 02:38:39;;;;;;;14.18;11.93;;;3.90;99.90;;;;;;5022888;28;20147;-74
2022/01/17 02:41:05;;;;;;;13.43;11.27;;;3.80;99.90;;;;;;5023457;28;20444;-73
2022/01/17 02:43:32;;;;;;;12.52;11.18;;;3.90;99.90;;;;;;5022874;28;20022;-73
2022/01/17 02:48:29;;;;;;;13.55;9.93;;;3.90;99.90;;;;;;5025230;28;20032;-73
2022/01/17 02:50:56;;;;;;;13.15;10.13;;;3.90;99.90;;;;;;5018145;28;20461;-72
2022/01/17 02:53:22;;;;;;;15.40;11.43;;;3.90;99.90;;;;;;5016089;28;20399;-74
2022/01/17 02:55:51;;;;;;;16.50;11.98;;;4.00;99.90;;;;;;5017152;28;20084;-74
2022/01/17 02:58:20;;;;;;;16.13;11.15;;;4.20;99.90;;;;;;5016768;28;20022;-73
2022/01/17 03:00:47;;;;;;;15.23;11.70;;;4.10;99.90;;;;;;5016021;28;20038;-73
2022/01/17 03:03:14;;;;;;;15.82;11.80;;;4.00;99.90;;;;;;5015983;28;20026;-74
2022/01/17 03:05:40;;;;;;;13.80;11.15;;;4.00;99.90;;;;;;5014646;28;20528;-73
2022/01/17 03:08:06;;;;;;;15.45;12.07;;;3.90;99.90;;;;;;5016818;28;20037;-73
2022/01/17 03:10:39;;;;;;;20.75;10.68;;;3.90;99.90;;;;;;5015731;28;20025;-72
2022/01/17 03:13:11;;;;;;;15.65;11.15;;;4.10;99.90;;;;;;5016019;28;20371;-72
2022/01/17 03:15:37;;;;;;;13.57;11.13;;;4.30;99.90;;;;;;5015977;28;20482;-71
2022/01/17 03:18:04;;;;;;;15.63;11.43;;;4.40;99.90;;;;;;5015879;28;20105;-74
2022/01/17 03:20:30;;;;;;;13.85;11.77;;;4.30;99.90;;;;;;5014174;28;20120;-73
2022/01/17 03:22:56;;;;;;;13.77;11.68;;;4.20;99.90;;;;;;5014710;28;20081;-72
2022/01/17 03:25:22;;;;;;;14.95;11.35;;;4.10;99.90;;;;;;5015329;28;20433;-72
2022/01/17 03:27:48;;;;;;;14.95;11.88;;;4.10;99.90;;;;;;5015658;28;20022;-73
2022/01/17 03:30:14;;;;;;;16.65;12.10;;;4.00;99.90;;;;;;5037604;23;20063;-78
2022/01/17 03:32:39;;;;;;;16.48;12.15;;;4.10;99.90;;;;;;5014336;28;20025;-78
2022/01/17 03:35:05;;;;;;;16.88;11.95;;;4.00;99.90;;;;;;5024151;28;20026;-77
2022/01/17 03:37:31;;;;;;;13.70;10.65;;;4.00;99.90;;;;;;5023771;28;20105;-78
2022/01/17 03:39:57;;;;;;;18.15;12.07;;;4.00;99.90;;;;;;5021696;28;20076;-78
2022/01/17 03:42:24;;;;;;;14.90;11.65;;;4.00;99.90;;;;;;5019232;28;20080;-78
2022/01/17 03:44:50;;;;;;;15.25;11.52;;;3.90;99.90;;;;;;5015139;28;20026;-76
2022/01/17 03:47:16;;;;;;;15.05;11.05;;;3.90;99.90;;;;;;5012732;28;20022;-77
2022/01/17 03:49:42;;;;;;;15.20;12.60;;;3.90;99.90;;;;;;5013965;28;20505;-77
2022/01/17 03:52:07;;;;;;;15.20;11.40;;;3.90;99.90;;;;;;5012938;28;20088;-77
2022/01/17 03:54:34;;;;;;;15.63;13.00;;;3.90;99.90;;;;;;5012849;28;20026;-77
2022/01/17 03:56:59;;;;;;;15.32;11.73;;;3.90;99.90;;;;;;5013923;28;20029;-77
2022/01/17 03:59:25;;;;;;;16.52;12.30;;;3.80;99.90;;;;;;5013945;28;20425;-77
2022/01/17 04:01:51;;;;;;;16.13;11.70;;;3.90;99.90;;;;;;5013829;28;20452;-77
2022/01/17 04:04:17;;;;;;;15.10;11.88;;;3.90;99.90;;;;;;5014010;28;20053;-77
2022/01/17 04:06:43;;;;;;;16.00;12.75;;;3.90;99.90;;;;;;5013964;28;20375;-77
2022/01/17 04:09:10;;;;;;;17.50;13.70;;;3.90;99.90;;;;;;5013761;28;20026;-78
2022/01/17 04:11:36;;;;;;;16.88;13.15;;;3.80;99.90;;;;;;5012363;28;20026;-78
2022/01/17 04:14:03;;;;;;;18.08;13.45;;;3.80;99.90;;;;;;5012146;28;20054;-78
2022/01/17 04:16:29;;;;;;;21.13;14.32;;;3.80;99.90;;;;;;5012102;28;20049;-78
2022/01/17 04:18:55;;;;;;;15.82;13.70;;;4.00;99.90;;;;;;5011947;28;20477;-78
2022/01/17 04:21:21;;;;;;;21.25;15.63;;;4.10;99.90;;;;;;5014294;28;20474;-77
2022/01/17 04:23:46;;;;;;;19.60;14.95;;;4.00;99.90;;;;;;5013940;28;20042;-78
2022/01/17 04:26:12;;;;;;;23.30;15.85;;;3.80;99.90;;;;;;5013713;28;20311;-78
2022/01/17 04:28:38;;;;;;;20.13;15.27;;;3.80;99.90;;;;;;5013152;28;20062;-78
2022/01/17 04:31:03;;;;;;;19.42;14.38;;;3.80;99.90;;;;;;5013687;28;20034;-77
2022/01/17 04:33:29;;;;;;;23.45;16.08;;;3.70;99.90;;;;;;5014785;28;20100;-78
2022/01/17 04:35:55;;;;;;;24.08;16.38;;;3.70;99.90;;;;;;5013996;28;20040;-77
2022/01/17 04:38:20;;;;;;;21.95;15.02;;;3.70;99.90;;;;;;5013981;28;20064;-78
2022/01/17 04:40:50;;;;;;;22.55;15.65;;;3.60;99.90;;;;;;5013498;28;20022;-78
2022/01/17 04:45:07;;;;;;;19.20;14.68;;;3.60;99.90;;;;;;5012862;28;20100;-78
2022/01/17 04:46:08;;;;;;;18.13;15.00;;;3.60;99.90;;;;;;5009642;28;20036;-77
2022/01/17 04:48:34;;;;;;;23.70;15.85;;;3.60;99.90;;;;;;5011505;28;20037;-78
2022/01/17 04:51:00;;;;;;;22.63;17.02;;;3.60;99.90;;;;;;5011685;28;20037;-77
2022/01/17 04:53:27;;;;;;;23.02;16.60;;;3.60;99.90;;;;;;5014287;28;20029;-78
2022/01/17 04:55:53;;;;;;;18.77;14.40;;;3.70;99.90;;;;;;5013134;28;20024;-77
2022/01/17 04:58:18;;;;;;;22.17;15.95;;;3.80;99.90;;;;;;5011960;28;20105;-78
2022/01/17 05:00:48;;;;;;;22.90;16.25;;;3.90;99.90;;;;;;5011844;28;20037;-77
2022/01/17 05:03:19;;;;;;;20.30;15.55;;;3.80;99.90;;;;;;5011665;28;20030;-77
2022/01/17 05:05:45;;;;;;;21.38;16.00;;;3.80;99.90;;;;;;5013969;28;20048;-78
2022/01/17 05:08:11;;;;;;;22.98;16.08;;;3.80;99.90;;;;;;5014690;28;20478;-79
2022/01/17 05:10:37;;;;;;;22.98;17.73;;;3.70;99.90;;;;;;5012404;28;20025;-78
2022/01/17 05:13:03;;;;;;;23.42;16.65;;;3.70;99.90;;;;;;5013587;28;20018;-78
2022/01/17 05:15:35;;;;;;;22.25;15.68;;;3.70;99.90;;;;;;5012118;28;20057;-78
2022/01/17 05:20:29;;;;;;;25.02;17.38;;;3.70;99.90;;;;;;5015435;28;20033;-77
2022/01/17 05:22:56;;;;;;;22.63;17.02;;;3.60;99.90;;;;;;5013145;28;20105;-76
2022/01/17 05:25:22;;;;;;;23.42;16.73;;;3.70;99.90;;;;;;5011375;28;20520;-77
2022/01/17 05:27:47;;;;;;;23.83;18.20;;;3.70;99.90;;;;;;5013144;28;20029;-78
2022/01/17 05:30:16;;;;;;;22.55;16.75;;;3.60;99.90;;;;;;5019976;28;20034;-78
2022/01/17 05:32:42;;;;;;;25.05;17.80;;;3.60;99.90;;;;;;5012914;28;20500;-77
2022/01/17 05:35:10;;;;;;;21.98;16.10;;;3.60;99.90;;;;;;5014783;28;20026;-80
2022/01/17 05:37:36;;;;;;;20.25;16.00;;;3.60;99.90;;;;;;5013292;28;20052;-78
2022/01/17 05:40:04;;;;;;;21.77;16.40;;;3.60;99.90;;;;;;5013614;28;20397;-78
2022/01/17 05:42:30;;;;;;;21.65;15.02;;;3.70;99.90;;;;;;5013050;28;20030;-77
2022/01/17 05:44:55;;;;;;;20.83;14.70;;;3.60;99.90;;;;;;5014775;28;20049;-78
2022/01/17 05:47:22;;;;;;;17.25;14.55;;;3.70;99.90;;;;;;5012725;28;20022;-78
2022/01/17 05:49:48;;;;;;;18.63;12.98;;;3.70;99.90;;;;;;5016580;28;20086;-77
2022/01/17 05:52:13;;;;;;;19.15;13.32;;;3.70;99.90;;;;;;5019898;28;20057;-77
2022/01/17 05:54:41;;;;;;;17.65;12.68;;;3.80;99.90;;;;;;5016342;28;20565;-77
2022/01/17 05:57:07;;;;;;;15.27;11.75;;;3.80;99.90;;;;;;5024117;28;20084;-77
2022/01/17 05:59:32;;;;;;;15.85;11.23;;;3.80;99.90;;;;;;5024113;28;20026;-77
2022/01/17 06:01:58;;;;;;;15.35;9.38;;;3.90;99.90;;;;;;5021984;28;20036;-76
2022/01/17 06:04:24;;;;;;;12.18;9.98;;;3.90;99.90;;;;;;5036060;28;20041;-78
2022/01/17 06:06:49;;;;;;;11.57;9.55;;;3.90;99.90;;;;;;5021022;28;20026;-78
2022/01/17 06:09:15;;;;;;;9.25;7.90;;;3.90;99.90;;;;;;5023915;28;20064;-77
2022/01/17 06:11:41;;;;;;;8.40;7.43;;;4.00;99.90;;;;;;5020533;28;20111;-78
2022/01/17 06:14:09;;;;;;;7.38;6.57;;;4.00;99.90;;;;;;5016991;28;20096;-77
2022/01/17 06:16:36;;;;;;;8.90;7.05;;;4.10;99.90;;;;;;5033902;28;20030;-78
2022/01/17 06:19:02;;;;;;;7.35;6.57;;;4.10;99.90;;;;;;5018859;28;20089;-77
2022/01/17 06:21:28;;;;;;;6.75;6.13;;;4.10;99.90;;;;;;5019378;28;20369;-77
2022/01/17 06:23:53;;;;;;;7.57;6.50;;;4.20;99.90;;;;;;5017590;28;20026;-78
2022/01/17 06:26:20;;;;;;;6.90;6.10;;;4.20;99.90;;;;;;5032357;28;20120;-77
2022/01/17 06:28:46;;;;;;;9.32;7.15;;;4.20;99.90;;;;;;5017398;28;20118;-77
2022/01/17 06:31:12;;;;;;;7.85;6.03;;;4.20;99.90;;;;;;5017820;28;20100;-77
2022/01/17 06:33:37;;;;;;;6.25;5.47;;;4.20;99.90;;;;;;5033690;28;20414;-78
2022/01/17 06:36:03;;;;;;;8.52;5.57;;;4.20;99.90;;;;;;5033643;28;20032;-78
2022/01/17 06:38:29;;;;;;;6.10;5.07;;;4.20;99.90;;;;;;5017113;28;20446;-77
2022/01/17 06:40:55;;;;;;;7.82;5.75;;;4.20;99.90;;;;;;5031757;28;20065;-79
2022/01/17 06:43:22;;;;;;;6.28;5.15;;;4.20;99.90;;;;;;5017755;28;20030;-77
2022/01/17 06:45:47;;;;;;;6.30;5.53;;;4.20;99.90;;;;;;5016455;28;20038;-78
2022/01/17 06:48:13;;;;;;;7.00;6.30;;;4.30;99.90;;;;;;5025391;28;20034;-77
2022/01/17 06:50:39;;;;;;;6.68;5.80;;;4.30;99.90;;;;;;5037652;28;20049;-76
2022/01/17 06:53:04;;;;;;;9.32;6.95;;;4.30;99.90;;;;;;5037338;28;20021;-78
2022/01/17 06:55:30;;;;;;;6.88;5.90;;;4.30;99.90;;;;;;5036820;28;20010;-77
2022/01/17 06:57:56;;;;;;;7.93;5.75;;;4.30;99.90;;;;;;5053893;28;20029;-77
2022/01/17 07:00:22;;;;;;;8.23;6.63;;;4.30;99.90;;;;;;5017046;28;20033;-77
2022/01/17 07:02:47;;;;;;;7.57;6.82;;;4.30;99.90;;;;;;5032380;28;20540;-77
2022/01/17 07:05:13;;;;;;;7.53;5.93;;;4.30;99.90;;;;;;5031902;28;20053;-77
2022/01/17 07:07:39;;;;;;;7.38;6.25;;;4.30;99.90;;;;;;5018080;28;20026;-78
2022/01/17 07:10:05;;;;;;;6.38;5.45;;;4.30;99.90;;;;;;5033124;28;20485;-78
2022/01/17 07:12:31;;;;;;;7.50;6.32;;;4.30;99.90;;;;;;5018526;28;20049;-78
2022/01/17 07:14:56;;;;;;;8.25;6.60;;;4.30;99.90;;;;;;5019675;28;20017;-78
2022/01/17 07:17:22;;;;;;;7.22;5.82;;;4.40;99.90;;;;;;5033344;28;20022;-78
2022/01/17 07:19:47;;;;;;;9.82;6.38;;;4.40;99.90;;;;;;5022001;28;20057;-78
2022/01/17 07:22:13;;;;;;;7.97;5.78;;;4.50;99.90;;;;;;5018134;28;20029;-79
2022/01/17 07:24:39;;;;;;;10.25;7.43;;;4.40;99.90;;;;;;5038575;28;20527;-80
2022/01/17 07:27:05;;;;;;;11.02;7.05;;;4.50;99.90;;;;;;5024259;28;20076;-81
2022/01/17 07:29:31;;;;;;;8.05;5.50;;;4.50;99.90;;;;;;5030001;28;20248;-77
2022/01/17 07:31:57;;;;;;;8.55;5.82;;;4.60;99.90;;;;;;5024128;28;20049;-77
2022/01/17 07:34:23;;;;;;;6.43;5.32;;;4.70;99.90;;;;;;5020374;28;20115;-79
2022/01/17 07:36:49;;;;;;;7.70;5.18;;;4.80;99.90;;;;;;5019278;28;20351;-77
2022/01/17 07:39:15;;;;;;;5.70;4.88;;;4.80;99.90;;;;;;5018827;28;20030;-77
2022/01/17 07:41:41;;;;;;;7.43;4.75;;;4.80;99.90;;;;;;5016717;28;20121;-77
2022/01/17 07:44:17;;;;;;;6.63;5.10;;;5.00;99.90;;;;;;5018919;28;20061;-78
2022/01/17 07:46:54;;;;;;;5.45;4.72;;;4.90;99.90;;;;;;5017929;28;20022;-77
2022/01/17 07:49:20;;;;;;;6.53;5.50;;;4.80;99.90;;;;;;5016658;28;20113;-79
2022/01/17 07:51:58;;;;;;;6.38;5.10;;;4.80;99.90;;;;;;5017193;28;20041;-78
2022/01/17 07:54:25;;;;;;;7.95;7.15;;;4.70;99.90;;;;;;5016035;28;20449;-79
2022/01/17 07:56:51;;;;;;;6.38;5.72;;;4.70;99.90;;;;;;5018185;28;20018;-77
2022/01/17 07:59:17;;;;;;;5.50;4.90;;;4.80;99.90;;;;;;5034174;28;20453;-78
2022/01/17 08:01:43;;;;;;;7.95;6.53;;;4.80;99.90;;;;;;5017465;28;20036;-79
2022/01/17 08:04:09;;;;;;;6.20;4.72;;;4.80;99.90;;;;;;5019315;28;20064;-78
2022/01/17 08:06:39;;;;;;;5.85;5.25;;;4.80;99.90;;;;;;5021198;28;20026;-79
2022/01/17 08:09:35;;;;;;;4.88;4.15;;;4.90;99.90;;;;;;5020217;28;20094;-78
2022/01/17 08:12:03;;;;;;;8.10;5.60;;;4.80;99.90;;;;;;5018056;28;20028;-78
2022/01/17 08:14:29;;;;;;;6.10;4.82;;;4.80;99.90;;;;;;5022372;28;20078;-78
2022/01/17 08:16:55;;;;;;;5.60;5.13;;;4.90;99.90;;;;;;5036094;28;20041;-77
2022/01/17 08:19:24;;;;;;;5.38;4.88;;;4.90;99.90;;;;;;5021106;28;20021;-77
2022/01/17 08:21:51;;;;;;;4.55;3.65;;;4.90;99.90;;;;;;5025731;28;20108;-77
2022/01/17 08:24:18;;;;;;;4.78;4.28;;;4.90;99.90;;;;;;5022051;28;20105;-78
2022/01/17 08:26:44;;;;;;;5.53;4.78;;;5.00;99.90;;;;;;5023659;28;20094;-78
2022/01/17 08:29:11;;;;;;;5.70;4.30;;;5.00;99.90;;;;;;5038462;28;20065;-77
2022/01/17 08:31:37;;;;;;;6.28;4.55;;;5.10;99.90;;;;;;5039432;28;20055;-78
2022/01/17 08:34:02;;;;;;;4.45;3.85;;;5.10;99.90;;;;;;5039163;28;20026;-78
2022/01/17 08:36:28;;;;;;;3.97;3.58;;;5.10;99.90;;;;;;5025804;28;20383;-77
2022/01/17 08:38:53;;;;;;;4.70;3.85;;;5.20;99.90;;;;;;5020238;28;20037;-79
2022/01/17 08:41:20;;;;;;;5.65;4.10;;;5.20;99.90;;;;;;5019784;28;20032;-77
2022/01/17 08:43:46;;;;;;;4.10;3.70;;;5.30;99.90;;;;;;5018693;28;20110;-77
2022/01/17 08:46:12;;;;;;;4.60;3.70;;;5.30;99.90;;;;;;5018608;28;20026;-79
2022/01/17 08:48:39;;;;;;;4.32;3.63;;;5.30;99.90;;;;;;5018655;28;20053;-77
2022/01/17 08:51:05;;;;;;;7.40;4.63;;;5.50;99.90;;;;;;5020156;28;20026;-79
2022/01/17 08:53:30;;;;;;;4.50;4.10;;;5.60;99.90;;;;;;5018064;28;20072;-77
2022/01/17 08:55:56;;;;;;;4.30;3.63;;;5.70;99.90;;;;;;5014784;28;20076;-77
2022/01/17 08:58:21;;;;;;;5.05;4.20;;;5.60;99.90;;;;;;5017706;28;20029;-77
2022/01/17 09:00:47;;;;;;;4.18;3.42;;;5.60;99.90;;;;;;5016620;28;20048;-78
2022/01/17 09:03:13;;;;;;;3.78;3.28;;;5.60;99.90;;;;;;5031297;28;20066;-78
2022/01/17 09:05:39;;;;;;;4.43;4.03;;;5.60;99.90;;;;;;5015805;28;20030;-78
2022/01/17 09:08:08;;;;;;;4.75;3.67;;;5.60;99.90;;;;;;5019979;28;20037;-77
2022/01/17 09:10:35;;;;;;;4.05;3.63;;;5.70;99.90;;;;;;5031681;28;20044;-78
2022/01/17 09:13:00;;;;;;;4.90;3.22;;;5.70;99.90;;;;;;5015649;28;20014;-78
2022/01/17 09:15:26;;;;;;;4.32;3.85;;;5.90;99.90;;;;;;5018264;28;20032;-78
2022/01/17 09:17:52;;;;;;;4.75;3.08;;;6.00;99.90;;;;;;5034763;28;20089;-79
2022/01/17 09:20:17;;;;;;;4.65;3.28;;;6.00;99.90;;;;;;5019808;28;20493;-77
2022/01/17 09:22:43;;;;;;;4.47;3.75;;;6.00;99.90;;;;;;5019062;28;20112;-79
2022/01/17 09:25:09;;;;;;;4.15;3.40;;;6.10;99.90;;;;;;5017429;28;20018;-77
2022/01/17 09:27:36;;;;;;;3.45;3.05;;;6.10;99.90;;;;;;5035004;28;20097;-78
2022/01/17 09:30:05;;;;;;;4.05;3.30;;;6.20;99.90;;;;;;5021299;28;20098;-78
2022/01/17 09:32:30;;;;;;;4.03;3.60;;;6.20;99.90;;;;;;5018898;28;20086;-78
2022/01/17 09:34:56;;;;;;;5.25;3.50;;;6.30;99.90;;;;;;5018504;28;20045;-78
2022/01/17 09:37:23;;;;;;;4.53;3.70;;;6.30;99.90;;;;;;5017787;28;20025;-78
2022/01/17 09:39:49;;;;;;;5.57;4.43;;;6.40;99.90;;;;;;5019933;28;20026;-79
2022/01/17 09:42:15;;;;;;;4.43;3.63;;;6.50;99.90;;;;;;5028372;28;20058;-77
2022/01/17 09:44:46;;;;;;;5.00;3.50;;;6.50;99.90;;;;;;5028196;28;20060;-78
2022/01/17 09:47:14;;;;;;;3.80;3.20;;;6.60;99.90;;;;;;5010561;28;20560;-78
2022/01/17 09:49:55;;;;;;;4.40;3.43;;;6.50;99.90;;;;;;5026565;28;20052;-78
2022/01/17 09:52:36;;;;;;;3.40;3.00;;;6.60;99.90;;;;;;5016530;28;20037;-77
2022/01/17 09:55:15;;;;;;;3.47;2.95;;;6.60;99.90;;;;;;5015951;28;20026;-77
2022/01/17 09:57:48;;;;;;;4.15;3.30;;;6.60;99.90;;;;;;5019258;28;20057;-77
2022/01/17 10:00:16;;;;;;;3.17;2.85;;;6.70;99.90;;;;;;5039063;28;20022;-78
2022/01/17 10:02:41;;;;;;;4.35;2.55;;;6.90;99.90;;;;;;5027637;28;20106;-78
2022/01/17 10:05:08;;;;;;;2.25;2.05;;;7.00;99.90;;;;;;5020788;28;20037;-78
2022/01/17 10:07:57;;;;;;;2.90;2.47;;;7.00;99.90;;;;;;5024789;28;20022;-77
2022/01/17 10:10:50;;;;;;;2.33;2.13;;;7.10;99.90;;;;;;5018251;28;20030;-78
2022/01/17 10:13:25;;;;;;;1.77;1.63;;;7.00;99.90;;;;;;5020030;28;20029;-76
2022/01/17 10:16:18;;;;;;;2.25;2.05;;;7.10;99.90;;;;;;5038755;28;20482;-78
2022/01/17 10:19:03;;;;;;;1.80;1.55;;;7.20;99.90;;;;;;5022101;28;20456;-77
2022/01/17 10:21:39;;;;;;;1.75;1.60;;;7.10;99.90;;;;;;5037558;28;20122;-77
2022/01/17 10:24:28;;;;;;;1.70;1.40;;;7.20;99.90;;;;;;5022285;28;20030;-76
2022/01/17 10:35:11;;;;;;;2.60;1.80;;;6.90;99.90;;;;;;5019041;28;20110;-78
2022/01/17 10:37:37;;;;;;;1.85;1.35;;;7.00;99.90;;;;;;5018957;28;20038;-77
2022/01/17 10:40:10;;;;;;;1.67;1.52;;;7.10;99.90;;;;;;5024436;28;20057;-77
2022/01/17 10:42:46;;;;;;;1.85;1.75;;;7.10;99.90;;;;;;5023648;28;20037;-77
2022/01/17 10:45:16;;;;;;;1.63;1.20;;;7.20;99.90;;;;;;5024639;28;20030;-77
2022/01/17 10:47:43;;;;;;;3.03;1.45;;;7.10;99.90;;;;;;5023880;28;20026;-77
2022/01/17 10:50:23;;;;;;;3.83;3.38;;;7.00;99.90;;;;;;5022242;28;20014;-78
2022/01/17 10:52:52;;;;;;;4.43;3.83;;;6.60;99.90;;;;;;5018612;28;20021;-77
2022/01/17 10:55:21;;;;;;;7.07;4.40;;;6.40;99.90;;;;;;5017012;28;20026;-78
2022/01/17 10:57:49;;;;;;;4.90;4.30;;;6.20;99.90;;;;;;5017784;28;20421;-79
2022/01/17 11:00:17;;;;;;;7.63;4.38;;;6.10;99.90;;;;;;5032750;28;20022;-78
2022/01/17 11:02:47;;;;;;;5.32;4.28;;;6.10;99.90;;;;;;5023972;28;20072;-76
2022/01/17 11:05:14;;;;;;;5.20;4.70;;;6.10;99.90;;;;;;5031293;28;20018;-77
2022/01/17 11:07:43;;;;;;;4.93;4.53;;;6.20;99.90;;;;;;5031361;28;20440;-78
2022/01/17 11:10:21;;;;;;;6.35;5.30;;;6.10;99.90;;;;;;5015294;28;20045;-77
2022/01/17 11:12:51;;;;;;;4.70;4.25;;;6.10;99.90;;;;;;5016567;28;20093;-78
2022/01/17 11:15:18;;;;;;;5.25;4.75;;;6.10;99.90;;;;;;5017880;28;20022;-78
2022/01/17 11:17:52;;;;;;;5.65;4.38;;;6.10;99.90;;;;;;5023074;28;20072;-77
2022/01/17 11:20:21;;;;;;;5.40;4.85;;;6.10;99.90;;;;;;5016925;28;20413;-77
2022/01/17 11:22:48;;;;;;;6.05;5.45;;;6.00;99.90;;;;;;5017791;28;20084;-77
2022/01/17 11:25:20;;;;;;;7.32;5.00;;;5.80;99.90;;;;;;5018489;28;20556;-78
2022/01/17 11:27:47;;;;;;;8.10;4.95;;;5.60;99.90;;;;;;5021872;28;20018;-77
2022/01/17 11:30:13;;;;;;;5.85;5.25;;;5.70;99.90;;;;;;5016061;28;20038;-77
2022/01/17 11:32:39;;;;;;;7.43;5.97;;;5.60;99.90;;;;;;5015205;28;20477;-77
2022/01/17 11:35:06;;;;;;;5.03;4.53;;;5.60;99.90;;;;;;5015861;28;20549;-76
2022/01/17 11:37:40;;;;;;;6.40;5.57;;;5.40;99.90;;;;;;5019794;28;20044;-77
2022/01/17 11:40:08;;;;;;;6.03;5.15;;;5.40;99.90;;;;;;5038502;28;20014;-77
2022/01/17 11:42:48;;;;;;;9.13;4.63;;;5.40;99.90;;;;;;5037992;28;20026;-77
2022/01/17 11:45:23;;;;;;;5.47;4.80;;;5.40;99.90;;;;;;5024068;28;20018;-76
2022/01/17 11:48:08;;;;;;;6.00;4.53;;;5.60;99.90;;;;;;5019513;28;20018;-77
2022/01/17 11:50:37;;;;;;;5.93;5.32;;;5.70;99.90;;;;;;5015970;28;20026;-77
2022/01/17 11:53:11;;;;;;;6.00;4.38;;;5.70;99.90;;;;;;5016011;28;20042;-77
2022/01/17 11:55:40;;;;;;;4.85;4.22;;;5.90;99.90;;;;;;5031834;28;20394;-78
2022/01/17 11:58:22;;;;;;;4.30;3.90;;;5.90;99.90;;;;;;5031120;28;20041;-78
2022/01/17 12:00:57;;;;;;;4.40;4.00;;;6.10;99.90;;;;;;5017311;28;20033;-77
2022/01/17 12:03:27;;;;;;;4.13;3.72;;;6.00;99.90;;;;;;5032089;28;20026;-77
2022/01/17 12:05:54;;;;;;;3.63;3.33;;;6.10;99.90;;;;;;5016637;28;20022;-76
2022/01/17 12:08:25;;;;;;;3.58;3.28;;;6.20;99.90;;;;;;5030385;28;20053;-77
2022/01/17 12:10:58;;;;;;;4.68;3.53;;;6.30;99.90;;;;;;5016009;28;20029;-78
2022/01/17 12:13:35;;;;;;;4.88;3.97;;;6.30;99.90;;;;;;5015457;28;20026;-77
2022/01/17 12:16:06;;;;;;;4.13;3.30;;;6.40;99.90;;;;;;5014981;28;20018;-77
2022/01/17 12:18:34;;;;;;;;;;;6.40;99.90;;;;;;5014892;28;20024;-79
2022/01/17 12:21:31;;;;;;;3.78;3.20;;;6.30;99.90;;;;;;5014350;28;19912;-78
2022/01/17 12:24:30;;;;;;;4.15;3.85;;;6.30;99.90;;;;;;5015760;28;20109;-78
2022/01/17 12:27:02;;;;;;;3.90;3.50;;;6.30;99.90;;;;;;5032380;28;20025;-78
2022/01/17 12:29:41;;;;;;;4.45;3.20;;;6.40;99.90;;;;;;5033317;28;20098;-77
2022/01/17 12:32:25;;;;;;;4.30;3.80;;;6.30;99.90;;;;;;5017645;28;20033;-77
2022/01/17 12:34:54;;;;;;;4.20;3.80;;;6.30;99.90;;;;;;5032401;28;20052;-77
2022/01/17 12:37:28;;;;;;;3.38;3.08;;;6.30;99.90;;;;;;5017674;28;20026;-78
2022/01/17 12:40:09;;;;;;;4.80;4.40;;;6.20;99.90;;;;;;5015773;28;20021;-78
2022/01/17 12:42:48;;;;;;;;;;;6.10;99.90;;;;;;5015408;28;20030;-77
2022/01/17 12:45:19;;;;;;;4.47;3.92;;;6.20;99.90;;;;;;5014604;28;19906;-77
2022/01/17 12:47:46;;;;;;;3.80;3.47;;;6.20;99.90;;;;;;5015349;28;20053;-78
2022/01/17 12:50:11;;;;;;;4.32;3.92;;;6.30;99.90;;;;;;5029733;28;20057;-77
2022/01/17 12:52:37;;;;;;;4.75;3.67;;;6.30;99.90;;;;;;5015820;28;20021;-78
2022/01/17 12:55:06;;;;;;;5.20;4.00;;;6.30;99.90;;;;;;5016448;28;20025;-79
2022/01/17 12:57:39;;;;;;;4.53;4.13;;;6.10;99.90;;;;;;5017034;28;20381;-78
2022/01/17 13:00:08;;;;;;;4.32;3.72;;;6.10;99.90;;;;;;5016622;28;20037;-79
2022/01/17 13:02:46;;;;;;;4.55;4.15;;;6.10;99.90;;;;;;5017638;28;20037;-79
2022/01/17 13:05:12;;;;;;;4.57;4.15;;;6.10;99.90;;;;;;5018349;28;20030;-80
2022/01/17 13:07:41;;;;;;;6.50;3.67;;;6.20;99.90;;;;;;5017723;28;20033;-78
2022/01/17 13:10:10;;;;;;;4.90;4.40;;;6.30;99.90;;;;;;5030925;28;20026;-78
2022/01/17 13:12:36;;;;;;;4.57;4.10;;;6.30;99.90;;;;;;5017077;28;20026;-78
2022/01/17 13:16:59;;;;;;;4.75;3.63;;;6.30;99.90;;;;;;5051303;27;20400;-77
2022/01/17 13:19:26;;;;;;;5.55;3.65;;;6.30;99.90;;;;;;5051461;28;20556;-77
2022/01/17 13:21:51;;;;;;;4.18;3.63;;;6.30;99.90;;;;;;5050571;28;20033;-77
2022/01/17 13:27:01;;;;;;;4.30;3.00;;;6.40;99.90;;;;;;5052206;28;20033;-77